Phuket, Thailand
Current Conditions -  °F | °C
As of 12:30 AM on Friday 31 Oct 2014 (Local Time) from VTSP Reporting Station
Broken Clouds Broken Clouds  
Wind Chill: 79°   Ceiling: 30000
Heat Index: 82°   Visibility: 6mi
Dew Point: 75°   Wind: 0mph
Humidity: 89%   Direction: NA
Pressure: 29.85"   Gusts: NA
Location:  7.98°N, 98.35°E
Report Text: VTSP 301730Z 00000KT 9000 FEW018 BKN300 26/24 Q1011 A2986NOSIG
Loading
Personal Weather Stations






























Interactive Weather Map
Tropical Storm Tracking
New forecast layout! Learn more

10-Day Weather Forecast

Advertisements
Track Severe Weather on mobile